Time;durP1;ratioP1;P1;durP2;ratioP2;P2;SDS_P1;SDS_P2;PMS_P1;PMS_P2;Temp;Humidity;BMP_temperature;BMP_pressure;BME280_temperature;BME280_humidity;BME280_pressure;Samples;Min_cycle;Max_cycle;Signal;HPM_P1;HPM_P2
2021/11/11 00:00:30;;;;;;;11.70;8.20;;;;;;;;;;5111618;28;20546;-73
2021/11/11 00:02:58;;;;;;;18.77;9.43;;;;;;;;;;5108304;28;20847;-72
2021/11/11 00:05:28;;;;;;;15.03;8.67;;;;;;;;;;5095749;28;20464;-73
2021/11/11 00:07:56;;;;;;;18.23;11.60;;;;;;;;;;5095259;28;20436;-75
2021/11/11 00:10:24;;;;;;;19.30;10.50;;;;;;;;;;5096941;28;20451;-74
2021/11/11 00:12:53;;;;;;;14.17;9.93;;;;;;;;;;5099279;28;20458;-74
2021/11/11 00:15:21;;;;;;;18.93;10.50;;;;;;;;;;5116067;28;20435;-74
2021/11/11 00:17:49;;;;;;;19.33;9.27;;;;;;;;;;5119350;28;20494;-73
2021/11/11 00:20:18;;;;;;;14.13;9.70;;;;;;;;;;5103616;28;20451;-74
2021/11/11 00:22:48;;;;;;;18.33;9.87;;;;;;;;;;5099577;28;20447;-74
2021/11/11 00:25:18;;;;;;;19.80;9.97;;;;;;;;;;5107831;28;20482;-75
2021/11/11 00:27:46;;;;;;;16.10;10.67;;;;;;;;;;5120298;28;20453;-73
2021/11/11 00:30:15;;;;;;;20.43;11.03;;;;;;;;;;5118751;28;20449;-74
2021/11/11 00:32:43;;;;;;;15.50;10.00;;;;;;;;;;5114182;28;20550;-74
2021/11/11 00:35:12;;;;;;;15.87;10.00;;;;;;;;;;5118546;28;20451;-74
2021/11/11 00:37:40;;;;;;;15.50;10.30;;;;;;;;;;5101111;28;20531;-74
2021/11/11 00:40:10;;;;;;;21.10;12.47;;;;;;;;;;5114099;28;20444;-75
2021/11/11 00:42:37;;;;;;;21.20;10.23;;;;;;;;;;5098528;28;20463;-74
2021/11/11 00:45:06;;;;;;;16.97;10.70;;;;;;;;;;5117221;28;20843;-74
2021/11/11 00:47:34;;;;;;;18.53;12.77;;;;;;;;;;5118666;28;20561;-73
2021/11/11 00:50:02;;;;;;;15.13;10.60;;;;;;;;;;5107240;28;20444;-73
2021/11/11 00:52:31;;;;;;;23.70;12.20;;;;;;;;;;5108142;28;20451;-73
2021/11/11 00:55:00;;;;;;;20.27;11.97;;;;;;;;;;5106855;28;20443;-73
2021/11/11 00:57:31;;;;;;;16.60;10.93;;;;;;;;;;5103146;28;20489;-74
2021/11/11 00:59:58;;;;;;;18.70;10.43;;;;;;;;;;5113044;28;20439;-73
2021/11/11 01:02:26;;;;;;;17.90;11.50;;;;;;;;;;5101092;28;20448;-74
2021/11/11 01:04:54;;;;;;;19.77;11.00;;;;;;;;;;5118883;28;20451;-74
2021/11/11 01:07:22;;;;;;;22.43;12.50;;;;;;;;;;5118208;28;20455;-74
2021/11/11 01:09:50;;;;;;;22.40;12.67;;;;;;;;;;5113251;28;20489;-74
2021/11/11 01:12:18;;;;;;;16.93;11.33;;;;;;;;;;5098040;28;20460;-74
2021/11/11 01:14:47;;;;;;;23.63;13.20;;;;;;;;;;5097990;28;20830;-74
2021/11/11 01:17:15;;;;;;;19.10;10.73;;;;;;;;;;5097893;28;20484;-75
2021/11/11 01:19:46;;;;;;;20.20;13.07;;;;;;;;;;5098819;28;20720;-74
2021/11/11 01:22:17;;;;;;;17.70;11.17;;;;;;;;;;5098276;28;20485;-74
2021/11/11 01:24:44;;;;;;;20.47;11.13;;;;;;;;;;5109259;28;20459;-74
2021/11/11 01:27:12;;;;;;;26.33;11.57;;;;;;;;;;5104806;28;20459;-74
2021/11/11 01:29:40;;;;;;;20.97;11.40;;;;;;;;;;5118456;28;20816;-74
2021/11/11 01:32:09;;;;;;;21.50;12.40;;;;;;;;;;5118567;28;20462;-75
2021/11/11 01:34:38;;;;;;;22.90;11.97;;;;;;;;;;5117936;28;20451;-74
2021/11/11 01:37:05;;;;;;;21.30;11.30;;;;;;;;;;5109908;28;20459;-75
2021/11/11 01:39:33;;;;;;;21.57;12.27;;;;;;;;;;5097527;28;20454;-74
2021/11/11 01:42:01;;;;;;;16.60;11.87;;;;;;;;;;5097176;28;20452;-74
2021/11/11 01:44:29;;;;;;;17.13;10.93;;;;;;;;;;5114329;28;20547;-74
2021/11/11 01:46:57;;;;;;;21.40;10.77;;;;;;;;;;5117566;28;20780;-74
2021/11/11 01:49:26;;;;;;;22.57;10.80;;;;;;;;;;5108919;28;20440;-74
2021/11/11 01:51:53;;;;;;;22.97;11.90;;;;;;;;;;5096756;28;20462;-74
2021/11/11 01:54:21;;;;;;;20.50;11.87;;;;;;;;;;5100437;28;20710;-74
2021/11/11 01:56:49;;;;;;;18.83;11.00;;;;;;;;;;5115042;28;20538;-73
2021/11/11 01:59:16;;;;;;;26.63;12.10;;;;;;;;;;5110713;28;20476;-74
2021/11/11 02:01:44;;;;;;;26.03;13.30;;;;;;;;;;5097311;28;20968;-74
2021/11/11 02:04:12;;;;;;;18.90;10.67;;;;;;;;;;5096367;28;20448;-75
2021/11/11 02:06:41;;;;;;;25.53;13.97;;;;;;;;;;5097008;28;20535;-74
2021/11/11 02:09:10;;;;;;;26.80;13.60;;;;;;;;;;5104411;28;20443;-74
2021/11/11 02:11:37;;;;;;;25.77;13.67;;;;;;;;;;5115503;28;20460;-74
2021/11/11 02:14:05;;;;;;;32.83;12.70;;;;;;;;;;5105583;28;20451;-74
2021/11/11 02:16:35;;;;;;;23.67;11.43;;;;;;;;;;5116458;28;20461;-74
2021/11/11 02:19:04;;;;;;;27.30;12.03;;;;;;;;;;5096699;28;20589;-74
2021/11/11 02:21:34;;;;;;;18.40;12.20;;;;;;;;;;5097201;28;20602;-74
2021/11/11 02:24:03;;;;;;;25.40;13.20;;;;;;;;;;5099547;28;20455;-74
2021/11/11 02:26:30;;;;;;;25.67;11.70;;;;;;;;;;5113446;28;20498;-74
2021/11/11 02:28:59;;;;;;;25.10;13.40;;;;;;;;;;5095859;28;20455;-74
2021/11/11 02:31:27;;;;;;;25.37;13.47;;;;;;;;;;5097126;28;21000;-74
2021/11/11 02:33:55;;;;;;;22.03;13.07;;;;;;;;;;5097193;28;20487;-74
2021/11/11 02:36:22;;;;;;;21.63;12.30;;;;;;;;;;5096370;28;20462;-73
2021/11/11 02:38:52;;;;;;;24.80;13.17;;;;;;;;;;5096149;28;20479;-73
2021/11/11 02:41:20;;;;;;;27.47;14.33;;;;;;;;;;5095696;28;20882;-74
2021/11/11 02:43:48;;;;;;;21.87;12.50;;;;;;;;;;5112890;28;20458;-74
2021/11/11 02:46:16;;;;;;;22.47;12.63;;;;;;;;;;5098103;28;20559;-73
2021/11/11 02:48:43;;;;;;;24.67;13.20;;;;;;;;;;5097416;28;20481;-73
2021/11/11 02:51:11;;;;;;;21.97;13.07;;;;;;;;;;5098475;28;21221;-74
2021/11/11 02:53:41;;;;;;;30.50;16.97;;;;;;;;;;5101357;28;20455;-73
2021/11/11 02:56:10;;;;;;;27.87;16.03;;;;;;;;;;5103791;28;20482;-75
2021/11/11 02:58:37;;;;;;;24.53;14.80;;;;;;;;;;5102434;28;20478;-73
2021/11/11 03:01:07;;;;;;;30.10;14.73;;;;;;;;;;5112327;28;20474;-74
2021/11/11 03:03:34;;;;;;;26.40;16.50;;;;;;;;;;5116647;28;20443;-74
2021/11/11 03:06:02;;;;;;;36.63;15.60;;;;;;;;;;5098492;28;20448;-74
2021/11/11 03:08:32;;;;;;;26.10;14.43;;;;;;;;;;5099218;28;20447;-74
2021/11/11 03:11:01;;;;;;;29.57;15.53;;;;;;;;;;5116197;28;20454;-74
2021/11/11 03:13:30;;;;;;;27.60;16.03;;;;;;;;;;5116673;28;20458;-74
2021/11/11 03:15:58;;;;;;;23.90;14.30;;;;;;;;;;5110363;28;20469;-74
2021/11/11 03:18:27;;;;;;;27.23;15.63;;;;;;;;;;5111613;28;20475;-73
2021/11/11 03:20:55;;;;;;;30.60;15.60;;;;;;;;;;5107042;28;20515;-73
2021/11/11 03:23:23;;;;;;;28.53;15.40;;;;;;;;;;5115001;28;20571;-75
2021/11/11 03:25:51;;;;;;;26.20;16.50;;;;;;;;;;5103239;28;20462;-74
2021/11/11 03:28:18;;;;;;;30.93;16.33;;;;;;;;;;5109652;28;20452;-73
2021/11/11 03:30:47;;;;;;;36.27;18.67;;;;;;;;;;5095440;28;20495;-73
2021/11/11 03:33:15;;;;;;;35.57;16.67;;;;;;;;;;5096305;28;20890;-73
2021/11/11 03:35:43;;;;;;;32.20;17.37;;;;;;;;;;5103968;28;20482;-74
2021/11/11 03:38:10;;;;;;;31.73;15.30;;;;;;;;;;5115364;28;20941;-74
2021/11/11 03:40:39;;;;;;;26.33;15.20;;;;;;;;;;5116282;28;20454;-74
2021/11/11 03:43:07;;;;;;;29.73;17.03;;;;;;;;;;5114030;28;20459;-73
2021/11/11 03:45:35;;;;;;;35.80;17.20;;;;;;;;;;5107586;28;20451;-74
2021/11/11 03:48:05;;;;;;;36.83;17.00;;;;;;;;;;5103332;28;20469;-73
2021/11/11 03:50:32;;;;;;;28.40;16.03;;;;;;;;;;5106573;28;20453;-73
2021/11/11 03:53:01;;;;;;;27.40;14.30;;;;;;;;;;5099526;28;20463;-73
2021/11/11 03:55:29;;;;;;;39.03;17.10;;;;;;;;;;5113283;28;20461;-74
2021/11/11 03:57:59;;;;;;;26.87;15.10;;;;;;;;;;5119432;28;20450;-73
2021/11/11 04:00:27;;;;;;;31.60;16.30;;;;;;;;;;5103819;28;20525;-74
2021/11/11 04:02:56;;;;;;;28.80;15.27;;;;;;;;;;5104818;28;20463;-73
2021/11/11 04:05:25;;;;;;;30.53;15.47;;;;;;;;;;5099211;28;20451;-73
2021/11/11 04:07:53;;;;;;;27.47;15.47;;;;;;;;;;5099348;28;20452;-73
2021/11/11 04:10:21;;;;;;;22.73;14.17;;;;;;;;;;5099212;28;20482;-73
2021/11/11 04:12:48;;;;;;;28.17;15.80;;;;;;;;;;5110582;28;20527;-73
2021/11/11 04:15:16;;;;;;;24.83;16.30;;;;;;;;;;5113620;28;20463;-73
2021/11/11 04:17:44;;;;;;;29.50;16.60;;;;;;;;;;5099704;28;20473;-73
2021/11/11 04:20:13;;;;;;;25.90;15.73;;;;;;;;;;5103529;28;20479;-73
2021/11/11 04:22:42;;;;;;;32.93;16.67;;;;;;;;;;5099427;28;20463;-73
2021/11/11 04:25:16;;;;;;;28.33;15.07;;;;;;;;;;5103731;28;20822;-73
2021/11/11 04:27:48;;;;;;;26.77;15.20;;;;;;;;;;5112373;28;20462;-73
2021/11/11 04:30:23;;;;;;;29.73;15.67;;;;;;;;;;5102419;28;20448;-73
2021/11/11 04:32:51;;;;;;;28.53;15.30;;;;;;;;;;5098594;28;20478;-73
2021/11/11 04:35:22;;;;;;;27.27;15.77;;;;;;;;;;5099330;28;20492;-74
2021/11/11 04:38:01;;;;;;;31.60;14.10;;;;;;;;;;5098391;28;20444;-73
2021/11/11 04:43:42;;;;;;;26.20;15.10;;;;;;;;;;5096279;28;20428;-74
2021/11/11 04:49:28;;;;;;;27.43;14.90;;;;;;;;;;5098016;28;20418;-73
2021/11/11 04:52:11;;;;;;;24.40;15.30;;;;;;;;;;5098663;28;20456;-74
2021/11/11 05:03:11;;;;;;;31.47;16.97;;;;;;;;;;5116401;28;20471;-74
2021/11/11 05:05:40;;;;;;;27.20;15.43;;;;;;;;;;5118200;28;20851;-74
2021/11/11 05:08:08;;;;;;;31.73;15.73;;;;;;;;;;5117226;28;20454;-74
2021/11/11 05:10:40;;;;;;;27.73;14.77;;;;;;;;;;5097733;28;20450;-74
2021/11/11 05:13:08;;;;;;;27.63;15.20;;;;;;;;;;5097485;28;20448;-74
2021/11/11 05:15:36;;;;;;;27.77;15.60;;;;;;;;;;5097317;28;20443;-74
2021/11/11 05:18:03;;;;;;;27.73;15.23;;;;;;;;;;5097753;28;20450;-73
2021/11/11 05:20:31;;;;;;;23.77;15.53;;;;;;;;;;5100070;28;20440;-73
2021/11/11 05:22:59;;;;;;;22.57;12.97;;;;;;;;;;5107366;28;20526;-73
2021/11/11 05:25:26;;;;;;;32.63;16.53;;;;;;;;;;5108916;28;20435;-73
2021/11/11 05:28:02;;;;;;;29.10;16.93;;;;;;;;;;5117220;28;20442;-74
2021/11/11 05:30:29;;;;;;;24.30;14.50;;;;;;;;;;5117590;28;20474;-74
2021/11/11 05:32:57;;;;;;;24.13;13.80;;;;;;;;;;5116536;28;20446;-74
2021/11/11 05:35:25;;;;;;;38.37;17.53;;;;;;;;;;5117188;28;20451;-74
2021/11/11 05:37:53;;;;;;;27.40;14.37;;;;;;;;;;5116826;28;20443;-72
2021/11/11 05:40:22;;;;;;;26.93;15.00;;;;;;;;;;5116121;28;20489;-73
2021/11/11 05:42:50;;;;;;;26.43;15.90;;;;;;;;;;5116681;28;20457;-74
2021/11/11 05:45:20;;;;;;;30.17;14.63;;;;;;;;;;5116959;28;20454;-74
2021/11/11 05:47:48;;;;;;;31.43;16.63;;;;;;;;;;5117081;28;20549;-74
2021/11/11 05:50:18;;;;;;;25.73;15.87;;;;;;;;;;5117389;28;20450;-74
2021/11/11 05:52:45;;;;;;;29.33;16.83;;;;;;;;;;5116945;28;20451;-73
2021/11/11 05:55:13;;;;;;;29.67;17.40;;;;;;;;;;5116638;28;20533;-73
2021/11/11 05:57:41;;;;;;;32.07;17.60;;;;;;;;;;5115202;28;20481;-74
2021/11/11 06:00:09;;;;;;;32.77;15.97;;;;;;;;;;5115683;28;20483;-74
2021/11/11 06:02:39;;;;;;;31.30;15.93;;;;;;;;;;5115496;28;20496;-74
2021/11/11 06:05:10;;;;;;;26.60;15.67;;;;;;;;;;5115752;28;20449;-74
2021/11/11 06:07:37;;;;;;;37.30;17.10;;;;;;;;;;5115649;28;20971;-73
2021/11/11 06:10:06;;;;;;;32.00;17.20;;;;;;;;;;5115723;28;20543;-73
2021/11/11 06:12:34;;;;;;;28.37;16.17;;;;;;;;;;5114997;28;20470;-74
2021/11/11 06:15:01;;;;;;;25.53;14.50;;;;;;;;;;5115374;28;20538;-74
2021/11/11 06:17:29;;;;;;;29.03;17.70;;;;;;;;;;5114764;28;20861;-73
2021/11/11 06:20:00;;;;;;;29.50;15.50;;;;;;;;;;5101760;28;20483;-73
2021/11/11 06:22:29;;;;;;;25.87;13.77;;;;;;;;;;5105792;28;20447;-73
2021/11/11 06:24:56;;;;;;;27.97;16.30;;;;;;;;;;5114137;28;20530;-73
2021/11/11 06:27:24;;;;;;;26.17;17.83;;;;;;;;;;5112632;28;20545;-73
2021/11/11 06:29:52;;;;;;;27.30;15.23;;;;;;;;;;5095254;28;20462;-73
2021/11/11 06:32:20;;;;;;;29.60;16.57;;;;;;;;;;5099259;28;20456;-73
2021/11/11 06:34:48;;;;;;;27.23;14.80;;;;;;;;;;5114770;28;20450;-73
2021/11/11 06:37:17;;;;;;;32.63;15.80;;;;;;;;;;5105044;28;20448;-73
2021/11/11 06:39:46;;;;;;;29.00;15.90;;;;;;;;;;5093046;28;20493;-73
2021/11/11 06:42:14;;;;;;;30.20;18.57;;;;;;;;;;5092564;28;20462;-72
2021/11/11 06:44:46;;;;;;;31.30;19.40;;;;;;;;;;5105390;28;20459;-74
2021/11/11 06:47:14;;;;;;;35.50;19.60;;;;;;;;;;5107769;28;20826;-73
2021/11/11 06:49:45;;;;;;;31.50;17.97;;;;;;;;;;5103112;28;20451;-73
2021/11/11 06:52:14;;;;;;;35.50;19.90;;;;;;;;;;5103962;28;20443;-74
2021/11/11 06:54:47;;;;;;;35.77;19.73;;;;;;;;;;5094743;28;20554;-74
2021/11/11 06:57:17;;;;;;;33.67;16.40;;;;;;;;;;5106345;28;20513;-74
2021/11/11 06:59:45;;;;;;;33.50;18.03;;;;;;;;;;5113471;28;20576;-74
2021/11/11 07:02:14;;;;;;;35.13;16.93;;;;;;;;;;5107779;28;20447;-73
2021/11/11 07:04:42;;;;;;;36.03;17.37;;;;;;;;;;5093050;28;20456;-73
2021/11/11 07:07:10;;;;;;;40.10;17.70;;;;;;;;;;5092703;28;20440;-73
2021/11/11 07:09:37;;;;;;;31.53;16.93;;;;;;;;;;5093692;28;20762;-72
2021/11/11 07:12:08;;;;;;;31.10;14.23;;;;;;;;;;5092868;28;20439;-72
2021/11/11 07:14:36;;;;;;;24.77;15.87;;;;;;;;;;5094073;28;20534;-71
2021/11/11 07:17:04;;;;;;;37.40;21.20;;;;;;;;;;5094765;28;20456;-73
2021/11/11 07:19:33;;;;;;;38.07;18.43;;;;;;;;;;5093899;28;20498;-73
2021/11/11 07:22:02;;;;;;;33.80;17.57;;;;;;;;;;5094659;28;20867;-73
2021/11/11 07:24:33;;;;;;;31.70;17.83;;;;;;;;;;5094032;28;20474;-73
2021/11/11 07:27:01;;;;;;;31.13;18.17;;;;;;;;;;5097560;28;20462;-72
2021/11/11 07:29:31;;;;;;;27.30;16.43;;;;;;;;;;5097465;28;20894;-73
2021/11/11 07:32:03;;;;;;;38.23;18.00;;;;;;;;;;5115753;28;20470;-73
2021/11/11 07:34:31;;;;;;;29.70;17.17;;;;;;;;;;5099282;28;20567;-73
2021/11/11 07:36:59;;;;;;;41.90;18.17;;;;;;;;;;5097187;28;20452;-72
2021/11/11 07:39:27;;;;;;;31.90;17.77;;;;;;;;;;5097811;28;20487;-72
2021/11/11 07:42:09;;;;;;;26.87;16.37;;;;;;;;;;5097167;28;20447;-72
2021/11/11 07:44:39;;;;;;;29.90;15.73;;;;;;;;;;5097796;28;20443;-73
2021/11/11 07:47:09;;;;;;;29.83;15.70;;;;;;;;;;5115358;28;20461;-72
2021/11/11 07:49:37;;;;;;;41.13;20.80;;;;;;;;;;5103509;28;20487;-73
2021/11/11 07:52:05;;;;;;;26.80;15.47;;;;;;;;;;5118248;28;20451;-76
2021/11/11 07:54:37;;;;;;;35.80;18.30;;;;;;;;;;5117546;28;20523;-73
2021/11/11 07:57:08;;;;;;;31.60;18.40;;;;;;;;;;5114869;28;20442;-73
2021/11/11 07:59:41;;;;;;;28.53;16.23;;;;;;;;;;5118496;28;20486;-72
2021/11/11 08:02:14;;;;;;;28.07;15.10;;;;;;;;;;5114013;28;20456;-73
2021/11/11 08:04:43;;;;;;;26.53;14.70;;;;;;;;;;5116279;28;20557;-74
2021/11/11 08:07:17;;;;;;;34.60;17.00;;;;;;;;;;5107680;28;20466;-73
2021/11/11 08:09:46;;;;;;;28.07;14.57;;;;;;;;;;5102973;28;20476;-73
2021/11/11 08:12:13;;;;;;;31.07;18.13;;;;;;;;;;5118282;28;20455;-73
2021/11/11 08:14:41;;;;;;;31.03;17.97;;;;;;;;;;5110589;28;20451;-73
2021/11/11 08:17:14;;;;;;;25.90;14.40;;;;;;;;;;5097835;28;20911;-73
2021/11/11 08:19:54;;;;;;;29.63;17.50;;;;;;;;;;5097866;28;20483;-73
2021/11/11 08:22:23;;;;;;;33.40;17.00;;;;;;;;;;5100640;28;20451;-72
2021/11/11 08:24:51;;;;;;;29.83;19.47;;;;;;;;;;5115206;28;20564;-74
2021/11/11 08:27:20;;;;;;;36.23;17.30;;;;;;;;;;5099373;28;20455;-72
2021/11/11 08:29:49;;;;;;;42.10;18.40;;;;;;;;;;5101746;28;20546;-71
2021/11/11 08:32:19;;;;;;;24.33;16.10;;;;;;;;;;5097810;28;20894;-72
2021/11/11 08:34:47;;;;;;;32.20;17.27;;;;;;;;;;5098109;28;20440;-72
2021/11/11 08:37:16;;;;;;;25.37;16.43;;;;;;;;;;5096221;28;20444;-74
2021/11/11 08:39:44;;;;;;;31.67;19.90;;;;;;;;;;5096675;28;20497;-73
2021/11/11 08:42:12;;;;;;;27.23;16.10;;;;;;;;;;5116802;28;20451;-72
2021/11/11 08:44:43;;;;;;;32.13;19.73;;;;;;;;;;5102359;28;20502;-73
2021/11/11 08:47:13;;;;;;;30.50;19.87;;;;;;;;;;5096834;28;20929;-74
2021/11/11 08:49:51;;;;;;;25.40;16.30;;;;;;;;;;5109133;28;20494;-73
2021/11/11 08:52:23;;;;;;;32.07;20.57;;;;;;;;;;5109318;28;20851;-73
2021/11/11 08:58:10;;;;;;;28.57;15.90;;;;;;;;;;5074468;28;20433;-71
2021/11/11 09:00:42;;;;;;;28.97;17.93;;;;;;;;;;5055612;28;20534;-73
2021/11/11 09:03:10;;;;;;;30.40;17.53;;;;;;;;;;5085024;28;20450;-71
2021/11/11 09:05:40;;;;;;;26.77;15.50;;;;;;;;;;5097249;28;20471;-72
2021/11/11 09:10:50;;;;;;;31.43;17.00;;;;;;;;;;5095836;28;20448;-72
2021/11/11 09:13:19;;;;;;;30.53;16.37;;;;;;;;;;5104298;28;20735;-72
2021/11/11 09:15:47;;;;;;;28.00;16.37;;;;;;;;;;5110658;28;20449;-72
2021/11/11 09:18:16;;;;;;;29.20;15.60;;;;;;;;;;5104371;28;20454;-73
2021/11/11 09:20:48;;;;;;;26.37;15.00;;;;;;;;;;5102928;28;20470;-72
2021/11/11 09:23:16;;;;;;;28.90;15.23;;;;;;;;;;5101082;28;20451;-73
2021/11/11 09:25:44;;;;;;;20.80;11.97;;;;;;;;;;5107639;28;20753;-73
2021/11/11 09:28:14;;;;;;;16.33;10.50;;;;;;;;;;5117289;28;21025;-72
2021/11/11 09:30:42;;;;;;;19.13;10.70;;;;;;;;;;5109984;28;20548;-72
2021/11/11 09:33:10;;;;;;;21.53;11.53;;;;;;;;;;5116614;28;20455;-72
2021/11/11 09:35:39;;;;;;;15.27;11.30;;;;;;;;;;5114570;28;20447;-73
2021/11/11 09:38:08;;;;;;;15.90;11.63;;;;;;;;;;5114909;28;20466;-73
2021/11/11 09:40:37;;;;;;;20.80;11.80;;;;;;;;;;5107142;28;20503;-72
2021/11/11 09:43:11;;;;;;;27.07;14.73;;;;;;;;;;5095779;28;20459;-73
2021/11/11 09:45:44;;;;;;;18.40;11.03;;;;;;;;;;5114246;28;20488;-73
2021/11/11 09:48:14;;;;;;;18.33;11.90;;;;;;;;;;5111055;28;20454;-73
2021/11/11 09:50:44;;;;;;;15.90;11.20;;;;;;;;;;5117196;28;20439;-73
2021/11/11 09:53:24;;;;;;;15.10;9.90;;;;;;;;;;5105907;28;20463;-72
2021/11/11 09:58:41;;;;;;;21.90;14.13;;;;;;;;;;5097142;28;20987;-73
2021/11/11 10:01:13;;;;;;;20.87;14.13;;;;;;;;;;5100703;28;20483;-74
2021/11/11 10:03:49;;;;;;;16.50;9.47;;;;;;;;;;5095073;28;20475;-73
2021/11/11 10:09:12;;;;;;;15.60;9.20;;;;;;;;;;5099438;28;20455;-73
2021/11/11 10:11:49;;;;;;;24.43;15.70;;;;;;;;;;5094828;28;20769;-74
2021/11/11 10:14:18;;;;;;;20.17;10.23;;;;;;;;;;5094956;28;20873;-74
2021/11/11 10:16:48;;;;;;;15.97;10.60;;;;;;;;;;5094971;28;20761;-73
2021/11/11 10:19:16;;;;;;;17.73;10.60;;;;;;;;;;5095160;28;20467;-73
2021/11/11 10:21:55;;;;;;;16.03;8.37;;;;;;;;;;5094721;28;20490;-71
2021/11/11 10:24:33;;;;;;;12.47;8.30;;;;;;;;;;5093752;28;20709;-73
2021/11/11 10:27:06;;;;;;;15.13;11.23;;;;;;;;;;5096124;28;20512;-72
2021/11/11 10:29:36;;;;;;;10.30;7.37;;;;;;;;;;5095199;28;20467;-72
2021/11/11 10:32:06;;;;;;;12.63;9.57;;;;;;;;;;5093776;28;20938;-73
2021/11/11 10:34:47;;;;;;;12.17;9.07;;;;;;;;;;5096679;28;20479;-74
2021/11/11 10:37:19;;;;;;;14.00;8.30;;;;;;;;;;5102618;28;20900;-74
2021/11/11 10:39:57;;;;;;;18.37;9.60;;;;;;;;;;5105597;28;20538;-72
2021/11/11 10:42:29;;;;;;;14.63;9.00;;;;;;;;;;5109147;28;20450;-73
2021/11/11 10:44:58;;;;;;;11.17;6.83;;;;;;;;;;5106938;28;20452;-72
2021/11/11 10:47:28;;;;;;;15.00;9.23;;;;;;;;;;5095486;28;20452;-72
2021/11/11 10:50:06;;;;;;;;;;;;;;;;;;;;;
2021/11/11 10:52:37;;;;;;;21.67;13.10;;;;;;;;;;5094682;28;20444;-73
2021/11/11 10:55:21;;;;;;;17.50;10.83;;;;;;;;;;5109171;28;20547;-74
2021/11/11 10:57:56;;;;;;;14.50;8.43;;;;;;;;;;5106430;28;20450;-73
2021/11/11 11:00:38;;;;;;;17.67;8.30;;;;;;;;;;5096027;28;20486;-73
2021/11/11 11:03:08;;;;;;;16.60;9.53;;;;;;;;;;5092742;28;20471;-72
2021/11/11 11:05:38;;;;;;;13.87;9.17;;;;;;;;;;5094142;28;20456;-73
2021/11/11 11:08:18;;;;;;;16.53;8.77;;;;;;;;;;5112205;28;20530;-73
2021/11/11 11:10:52;;;;;;;13.90;8.60;;;;;;;;;;5094389;28;20448;-73
2021/11/11 11:13:28;;;;;;;17.90;9.53;;;;;;;;;;5099717;28;20511;-73
2021/11/11 11:16:00;;;;;;;21.10;10.70;;;;;;;;;;5114012;28;20571;-74
2021/11/11 11:18:31;;;;;;;19.03;13.50;;;;;;;;;;5112221;28;20529;-73
2021/11/11 11:21:00;;;;;;;14.70;10.73;;;;;;;;;;5115364;28;20653;-73
2021/11/11 11:23:36;;;;;;;17.83;10.40;;;;;;;;;;5114605;28;20454;-72
2021/11/11 11:26:09;;;;;;;13.73;10.07;;;;;;;;;;5109400;28;20728;-72
2021/11/11 11:28:49;;;;;;;17.20;9.30;;;;;;;;;;5115687;28;20472;-73
2021/11/11 11:31:33;;;;;;;19.77;12.80;;;;;;;;;;5111275;28;20875;-73
2021/11/11 11:34:16;;;;;;;22.00;13.90;;;;;;;;;;5111694;28;20528;-73
2021/11/11 11:36:49;;;;;;;19.33;11.07;;;;;;;;;;5100662;28;20623;-73
2021/11/11 11:39:24;;;;;;;18.97;12.93;;;;;;;;;;5102832;28;20444;-72
2021/11/11 11:41:53;;;;;;;14.87;10.37;;;;;;;;;;5112244;28;20489;-72
2021/11/11 11:44:32;;;;;;;16.00;11.33;;;;;;;;;;5106244;28;20451;-72
2021/11/11 11:47:06;;;;;;;23.27;14.87;;;;;;;;;;5106631;28;20966;-73
2021/11/11 11:49:39;;;;;;;23.00;13.50;;;;;;;;;;5094665;28;20447;-71
2021/11/11 11:52:12;;;;;;;21.50;13.50;;;;;;;;;;5093486;28;20769;-72
2021/11/11 11:54:47;;;;;;;21.90;13.70;;;;;;;;;;5108789;28;20451;-72
2021/11/11 11:57:40;;;;;;;22.07;14.50;;;;;;;;;;5106340;28;20455;-72
2021/11/11 12:00:28;;;;;;;19.57;11.40;;;;;;;;;;5093998;28;20715;-74
2021/11/11 12:03:18;;;;;;;18.20;11.43;;;;;;;;;;5080279;28;20454;-73
2021/11/11 12:08:46;;;;;;;20.03;11.67;;;;;;;;;;5082654;28;20589;-73
2021/11/11 12:11:37;;;;;;;15.90;11.60;;;;;;;;;;5103145;28;20790;-72
2021/11/11 12:14:15;;;;;;;18.70;12.20;;;;;;;;;;5098800;28;21013;-73
2021/11/11 12:17:16;;;;;;;23.53;13.50;;;;;;;;;;5097501;28;20459;-71
2021/11/11 12:39:54;;;;;;;21.10;12.80;;;;;;;;;;5109443;28;20474;-73
2021/11/11 12:42:34;;;;;;;19.50;11.83;;;;;;;;;;5115754;28;20801;-72
2021/11/11 12:45:18;;;;;;;19.47;12.10;;;;;;;;;;5100678;28;20442;-72
2021/11/11 12:47:57;;;;;;;14.33;9.17;;;;;;;;;;5096753;28;20454;-73
2021/11/11 12:53:44;;;;;;;16.30;10.00;;;;;;;;;;5099653;28;20477;-75
2021/11/11 12:56:40;;;;;;;17.77;11.47;;;;;;;;;;5097319;28;20532;-74
2021/11/11 12:59:23;;;;;;;20.43;10.27;;;;;;;;;;5086695;28;20455;-73
2021/11/11 13:02:12;;;;;;;18.17;12.60;;;;;;;;;;5097979;28;20475;-72
2021/11/11 13:04:53;;;;;;;14.10;7.90;;;;;;;;;;5097865;28;20467;-74
2021/11/11 13:07:39;;;;;;;25.30;11.10;;;;;;;;;;5097632;28;20451;-72
2021/11/11 13:10:17;;;;;;;23.47;11.13;;;;;;;;;;5096552;28;20447;-72
2021/11/11 13:13:14;;;;;;;30.43;12.27;;;;;;;;;;5096290;28;21088;-76
2021/11/11 13:16:09;;;;;;;18.83;13.47;;;;;;;;;;5111289;28;20515;-73
2021/11/11 13:18:51;;;;;;;23.60;11.13;;;;;;;;;;5102427;28;20510;-75
2021/11/11 13:21:30;;;;;;;24.47;10.97;;;;;;;;;;5102505;28;20811;-74
2021/11/11 13:59:13;;;;;;;20.73;12.10;;;;;;;;;;5081811;28;20508;-74
2021/11/11 14:02:32;;;;;;;20.93;12.83;;;;;;;;;;5112972;28;20478;-73
2021/11/11 15:59:49;;;;;;;21.00;14.97;;;;;;;;;;5097679;28;20472;-74
2021/11/11 16:00:31;;;;;;;26.10;16.63;;;;;;;;;;5097580;28;20508;-74
2021/11/11 16:03:10;;;;;;;21.63;14.07;;;;;;;;;;5097205;28;20935;-74
2021/11/11 16:20:13;;;;;;;36.13;16.03;;;;;;;;;;5115152;28;20422;-74
2021/11/11 16:22:59;;;;;;;34.03;16.73;;;;;;;;;;5104943;28;20490;-73
2021/11/11 16:25:52;;;;;;;25.40;14.90;;;;;;;;;;5112606;28;20484;-73
2021/11/11 16:28:36;;;;;;;32.23;17.30;;;;;;;;;;5115355;28;20446;-73
2021/11/11 16:31:11;;;;;;;30.33;16.03;;;;;;;;;;5106741;28;20455;-73
2021/11/11 16:33:54;;;;;;;29.03;16.70;;;;;;;;;;5105659;28;20450;-72
2021/11/11 16:36:24;;;;;;;25.10;16.37;;;;;;;;;;5117076;28;20470;-72
2021/11/11 16:42:07;;;;;;;25.77;16.13;;;;;;;;;;5013631;28;20562;-72
2021/11/11 16:47:28;;;;;;;32.17;15.27;;;;;;;;;;5078851;28;20493;-73
2021/11/11 16:49:58;;;;;;;27.53;16.30;;;;;;;;;;5096236;28;20468;-72
2021/11/11 16:52:29;;;;;;;29.70;14.60;;;;;;;;;;5099853;28;20466;-72
2021/11/11 16:55:16;;;;;;;26.17;13.80;;;;;;;;;;5096037;28;20435;-72
2021/11/11 16:57:56;;;;;;;29.47;19.93;;;;;;;;;;5106495;28;20447;-73
2021/11/11 17:00:25;;;;;;;41.63;20.80;;;;;;;;;;5111940;28;20964;-72
2021/11/11 17:05:36;;;;;;;27.80;17.10;;;;;;;;;;5105780;28;20515;-72
2021/11/11 17:08:05;;;;;;;29.53;17.77;;;;;;;;;;5106828;28;20530;-72
2021/11/11 17:10:33;;;;;;;34.00;20.13;;;;;;;;;;5106602;28;20802;-72
2021/11/11 17:13:03;;;;;;;26.30;15.20;;;;;;;;;;5096476;28;20436;-72
2021/11/11 17:15:50;;;;;;;30.87;17.73;;;;;;;;;;5100547;28;20500;-73
2021/11/11 17:18:32;;;;;;;28.40;15.60;;;;;;;;;;5117488;28;20451;-74
2021/11/11 17:21:20;;;;;;;29.03;16.23;;;;;;;;;;5105228;28;20512;-73
2021/11/11 17:23:53;;;;;;;24.77;13.27;;;;;;;;;;5114530;28;20463;-71
2021/11/11 17:26:32;;;;;;;32.00;16.73;;;;;;;;;;5101844;28;20486;-71
2021/11/11 17:29:08;;;;;;;37.93;17.90;;;;;;;;;;5110709;28;20511;-71
2021/11/11 17:31:45;;;;;;;28.40;16.20;;;;;;;;;;5115689;28;20422;-73
2021/11/11 17:34:16;;;;;;;31.27;16.90;;;;;;;;;;5116588;28;20742;-73
2021/11/11 17:39:48;;;;;;;38.80;21.73;;;;;;;;;;5092904;28;20450;-74
2021/11/11 17:42:43;;;;;;;31.47;18.10;;;;;;;;;;5101057;28;20478;-73
2021/11/11 17:45:44;;;;;;;26.80;17.40;;;;;;;;;;5116358;28;20447;-73
2021/11/11 17:48:19;;;;;;;33.03;21.10;;;;;;;;;;5115846;28;20449;-72
2021/11/11 17:51:05;;;;;;;30.23;16.30;;;;;;;;;;5115760;28;20482;-73
2021/11/11 17:53:37;;;;;;;35.50;19.33;;;;;;;;;;5096287;28;20475;-73
2021/11/11 17:56:21;;;;;;;31.43;17.53;;;;;;;;;;5095346;28;20509;-71
2021/11/11 17:58:56;;;;;;;35.33;19.10;;;;;;;;;;5099998;28;20451;-73
2021/11/11 18:01:25;;;;;;;44.77;21.80;;;;;;;;;;5095423;28;20748;-72
2021/11/11 18:04:06;;;;;;;37.17;17.83;;;;;;;;;;5108770;28;20507;-73
2021/11/11 18:07:10;;;;;;;50.00;26.80;;;;;;;;;;5117190;28;20465;-74
2021/11/11 18:09:53;;;;;;;41.20;24.93;;;;;;;;;;5115495;28;20457;-73
2021/11/11 18:12:33;;;;;;;47.13;22.30;;;;;;;;;;5118021;28;20451;-73
2021/11/11 18:17:58;;;;;;;40.77;22.70;;;;;;;;;;5114474;28;20446;-73
2021/11/11 18:20:34;;;;;;;31.07;19.67;;;;;;;;;;5115528;28;20550;-73
2021/11/11 18:23:07;;;;;;;33.30;20.93;;;;;;;;;;5117077;28;20478;-72
2021/11/11 18:25:38;;;;;;;38.27;22.40;;;;;;;;;;5116771;28;20499;-74
2021/11/11 18:28:07;;;;;;;33.13;18.60;;;;;;;;;;5115637;28;20570;-72
2021/11/11 18:31:07;;;;;;;36.93;19.27;;;;;;;;;;5115822;28;20943;-73
2021/11/11 18:33:41;;;;;;;29.20;17.43;;;;;;;;;;5115420;28;20458;-73
2021/11/11 18:36:19;;;;;;;34.17;20.87;;;;;;;;;;5116654;28;20454;-73